Date,TemperatureHighF,TemperatureAvgF,TemperatureLowF,DewpointHighF,DewpointAvgF,DewpointLowF,HumidityHigh,HumidityAvg,HumidityLow,PressureMaxIn,PressureMinIn,WindSpeedMaxMPH,WindSpeedAvgMPH,GustSpeedMaxMPH,PrecipitationSumIn
2013-11-1,79.0,60.6,43.0,30.5,26.3,21.6,50,29,16,30.10,29.98,10,3,12,0.00
2013-11-2,86.0,68.1,49.0,46.3,24.6,20.4,49,22,10,30.01,29.84,18,4,23,0.00
2013-11-3,81.0,68.6,56.0,50.2,44.4,37.1,79,44,26,29.92,29.74,19,4,21,0.00
2013-11-4,80.0,64.5,51.0,56.7,44.2,34.9,77,50,25,29.84,29.70,23,4,31,0.14
2013-11-5,71.0,60.0,51.0,48.6,44.1,32.7,84,57,32,30.08,29.84,15,3,15,0.00
2013-11-6,75.0,59.8,48.0,32.7,22.8,14.5,41,24,16,30.19,30.08,14,4,16,0.00
2013-11-7,81.0,64.1,46.0,31.2,22.3,11.1,31,21,10,30.15,30.02,19,4,21,0.00
2013-11-8,83.0,66.1,50.0,37.8,33.2,27.3,45,31,18,30.07,29.96,10,3,11,0.00
2013-11-9,83.0,66.4,49.0,40.4,36.0,32.9,55,34,20,30.09,30.00,8,3,9,0.00
2013-11-10,86.0,67.3,51.0,40.0,36.2,32.9,52,34,19,30.11,30.00,11,2,11,0.00
2013-11-11,86.0,69.8,52.0,41.6,37.2,32.9,49,32,19,30.08,29.98,12,3,13,0.00
2013-11-12,88.0,72.1,58.0,46.7,40.2,33.7,42,32,22,30.16,30.06,18,4,18,0.00
2013-11-13,80.0,68.1,59.0,45.7,43.1,40.4,53,41,29,30.12,29.99,19,3,21,0.00
2013-11-14,81.0,65.3,53.0,45.8,41.4,37.0,64,44,24,30.02,29.85,10,3,10,0.00
2013-11-15,76.0,67.3,57.0,54.3,46.8,37.5,66,48,33,29.85,29.67,22,8,25,0.00
2013-11-16,73.0,63.4,56.0,53.8,46.4,37.8,89,56,32,29.91,29.73,18,5,20,0.00
2013-11-17,75.0,62.5,52.0,50.8,46.3,42.3,84,58,35,30.04,29.90,16,3,16,0.00
2013-11-18,78.0,63.8,52.0,47.0,44.4,40.3,68,51,31,30.07,29.96,9,3,10,0.00
2013-11-19,78.0,62.7,49.0,44.8,41.8,33.7,74,49,21,30.00,29.86,12,3,12,0.00
2013-11-20,74.0,61.5,51.0,42.6,40.4,37.2,66,48,28,29.90,29.82,13,3,13,0.00
2013-11-21,72.0,61.9,52.0,55.9,45.8,38.6,97,59,32,29.93,29.85,16,4,16,0.05
2013-11-22,66.0,53.7,46.0,57.3,51.0,46.0,100,92,56,29.95,29.78,23,5,23,1.61
2013-11-23,56.0,48.8,46.0,53.5,47.1,43.1,100,94,64,30.02,29.93,16,2,18,1.42
2013-11-24,59.0,48.9,42.0,46.4,42.1,36.6,99,79,55,30.09,29.99,12,3,13,0.00
2013-11-25,60.0,48.1,38.0,43.8,39.0,34.5,93,72,44,30.16,30.06,11,3,14,0.00
2013-11-26,68.0,52.2,40.0,41.4,36.0,28.5,91,60,26,30.19,30.07,11,2,14,0.00
2013-11-27,65.0,53.3,45.0,37.7,31.8,24.4,68,47,22,30.09,29.95,16,3,18,0.00
2013-11-28,73.0,55.0,39.0,37.4,33.6,29.3,72,47,25,30.06,29.95,11,3,11,0.00
2013-11-29,76.0,58.0,46.0,44.0,39.8,36.0,74,53,25,30.13,30.03,10,3,11,0.00
2013-11-30,70.0,56.5,47.0,48.2,44.4,40.0,84,66,42,30.13,30.03,8,2,8,0.00